Time;durP1;ratioP1;P1;durP2;ratioP2;P2;SDS_P1;SDS_P2;PMS_P1;PMS_P2;Temp;Humidity;BMP_temperature;BMP_pressure;BME280_temperature;BME280_humidity;BME280_pressure;Samples;Min_cycle;Max_cycle;Signal;HPM_P1;HPM_P2
2023/04/15 15:57:00;;;;;;;0.00;0.00;;;;;;;;;;5068327;28;20396;-66
2023/04/15 15:59:26;;;;;;;0.00;0.00;;;;;;;;;;5068077;28;20029;-66
2023/04/15 16:01:52;;;;;;;0.00;0.00;;;;;;;;;;5066418;28;20049;-69
2023/04/15 16:04:18;;;;;;;0.00;0.00;;;;;;;;;;5067129;28;20037;-68
2023/04/15 16:06:45;;;;;;;0.00;0.00;;;;;;;;;;5067342;28;20055;-68
2023/04/15 16:09:11;;;;;;;0.00;0.00;;;;;;;;;;5067965;28;20104;-69
2023/04/15 16:11:37;;;;;;;0.00;0.00;;;;;;;;;;5068076;28;20095;-70
2023/04/15 16:14:03;;;;;;;0.00;0.00;;;;;;;;;;5067837;28;20029;-67
2023/04/15 16:16:29;;;;;;;1324.70;999.90;;;;;;;;;;5067411;28;20045;-69
2023/04/15 16:18:57;;;;;;;1597.70;999.90;;;;;;;;;;5067715;28;20021;-69
2023/04/15 16:21:26;;;;;;;1999.90;999.90;;;;;;;;;;5067436;28;20025;-70
2023/04/15 16:23:52;;;;;;;1999.90;999.90;;;;;;;;;;5067494;28;20092;-70
2023/04/15 16:26:18;;;;;;;1999.90;999.90;;;;;;;;;;5067270;28;20056;-68
2023/04/15 16:28:44;;;;;;;1999.90;999.90;;;;;;;;;;5065726;28;20040;-68
2023/04/15 16:31:11;;;;;;;1999.90;999.90;;;;;;;;;;5067468;28;20032;-67
2023/04/15 16:33:37;;;;;;;1999.90;999.90;;;;;;;;;;5067434;28;20060;-69
2023/04/15 16:36:03;;;;;;;1999.90;999.90;;;;;;;;;;5065714;28;20175;-70
2023/04/15 16:38:29;;;;;;;1999.90;999.90;;;;;;;;;;5065947;28;20492;-69
2023/04/15 16:40:58;;;;;;;1999.90;999.90;;;;;;;;;;5067487;28;20410;-69
2023/04/15 16:43:24;;;;;;;1999.90;999.90;;;;;;;;;;5067216;28;20020;-68
2023/04/15 16:45:51;;;;;;;1999.90;999.90;;;;;;;;;;5065735;28;20101;-70
2023/04/15 16:48:17;;;;;;;1999.90;999.90;;;;;;;;;;5067158;28;20477;-69
2023/04/15 16:50:43;;;;;;;1999.90;999.90;;;;;;;;;;5066927;28;20377;-69
2023/04/15 16:53:09;;;;;;;1999.90;999.90;;;;;;;;;;5067025;28;20388;-69
2023/04/15 16:55:35;;;;;;;1999.90;999.90;;;;;;;;;;5066716;28;20132;-68
2023/04/15 16:58:02;;;;;;;1999.90;999.90;;;;;;;;;;5065502;28;20043;-69
2023/04/15 17:00:28;;;;;;;1999.90;999.90;;;;;;;;;;5066870;28;20021;-69
2023/04/15 17:02:57;;;;;;;1999.90;999.90;;;;;;;;;;5066082;28;20112;-69
2023/04/15 17:05:23;;;;;;;1999.90;999.90;;;;;;;;;;5066786;28;20511;-68
2023/04/15 17:07:49;;;;;;;1999.90;999.90;;;;;;;;;;5057167;28;20033;-67
2023/04/15 17:10:15;;;;;;;1999.90;999.90;;;;;;;;;;5057949;28;20032;-68
2023/04/15 17:12:41;;;;;;;1999.90;999.90;;;;;;;;;;5054276;28;20356;-68
2023/04/15 17:15:08;;;;;;;1999.90;999.90;;;;;;;;;;5053922;28;20713;-68
2023/04/15 17:17:34;;;;;;;1999.90;999.90;;;;;;;;;;5053386;28;20115;-69
2023/04/15 17:20:00;;;;;;;1999.90;999.90;;;;;;;;;;5054110;28;20484;-71
2023/04/15 17:22:27;;;;;;;1999.90;999.90;;;;;;;;;;5053526;28;20033;-69
2023/04/15 17:24:53;;;;;;;1999.90;999.90;;;;;;;;;;5053092;28;20044;-72
2023/04/15 17:27:20;;;;;;;1999.90;999.90;;;;;;;;;;5053167;28;20033;-70
2023/04/15 17:29:46;;;;;;;1999.90;999.90;;;;;;;;;;5053227;28;20089;-69
2023/04/15 17:32:12;;;;;;;1999.90;999.90;;;;;;;;;;5053124;28;20018;-67
2023/04/15 17:34:38;;;;;;;1999.90;999.90;;;;;;;;;;5049510;28;20021;-68
2023/04/15 17:37:04;;;;;;;1999.90;999.90;;;;;;;;;;5053207;28;20025;-67
2023/04/15 17:39:31;;;;;;;1999.90;999.90;;;;;;;;;;5053072;28;20025;-69
2023/04/15 17:41:57;;;;;;;1999.90;999.90;;;;;;;;;;5053294;28;20416;-68
2023/04/15 17:44:26;;;;;;;1999.90;999.90;;;;;;;;;;5052690;28;20135;-68
2023/04/15 17:46:52;;;;;;;1999.90;999.90;;;;;;;;;;5052867;28;20025;-70
2023/04/15 17:49:18;;;;;;;1999.90;999.90;;;;;;;;;;5052212;28;20032;-70
2023/04/15 17:51:45;;;;;;;1999.90;999.90;;;;;;;;;;5051990;28;20025;-68
2023/04/15 17:54:11;;;;;;;1999.90;999.90;;;;;;;;;;5052421;28;20048;-69
2023/04/15 17:56:37;;;;;;;1999.90;999.90;;;;;;;;;;5052276;28;20143;-72
2023/04/15 17:59:03;;;;;;;1999.90;999.90;;;;;;;;;;5052588;28;20025;-67
2023/04/15 18:01:29;;;;;;;1999.90;999.90;;;;;;;;;;5052764;28;20032;-68
2023/04/15 18:03:55;;;;;;;1999.90;999.90;;;;;;;;;;5052483;28;20098;-71
2023/04/15 18:06:21;;;;;;;1999.90;999.90;;;;;;;;;;5052524;28;20025;-68
2023/04/15 18:08:48;;;;;;;1999.90;999.90;;;;;;;;;;5052462;28;20040;-66
2023/04/15 18:11:14;;;;;;;0.00;0.00;;;;;;;;;;5052769;28;20029;-67
2023/04/15 18:13:40;;;;;;;0.00;0.00;;;;;;;;;;5052743;28;20029;-71
2023/04/15 18:16:06;;;;;;;0.00;0.00;;;;;;;;;;5053950;28;20040;-69
2023/04/15 18:18:33;;;;;;;0.00;0.00;;;;;;;;;;5051669;28;20423;-67
2023/04/15 18:20:59;;;;;;;0.00;0.00;;;;;;;;;;5052508;28;20037;-66
2023/04/15 18:23:25;;;;;;;0.00;0.00;;;;;;;;;;5051087;28;20143;-69
2023/04/15 18:25:51;;;;;;;1999.90;999.90;;;;;;;;;;5054819;28;20057;-68
2023/04/15 18:28:17;;;;;;;1999.90;999.90;;;;;;;;;;5052582;28;20468;-71
2023/04/15 18:30:43;;;;;;;1999.90;999.90;;;;;;;;;;5052659;28;20036;-67
2023/04/15 18:33:09;;;;;;;0.00;0.00;;;;;;;;;;5051808;28;20040;-66
2023/04/15 18:35:35;;;;;;;0.00;0.00;;;;;;;;;;5051891;28;20488;-70
2023/04/15 18:38:01;;;;;;;0.00;0.00;;;;;;;;;;5052137;28;20033;-70
2023/04/15 18:40:27;;;;;;;0.00;0.00;;;;;;;;;;5051979;28;20029;-64
2023/04/15 18:42:53;;;;;;;0.00;0.00;;;;;;;;;;5051598;28;20110;-66
2023/04/15 18:45:20;;;;;;;0.00;0.00;;;;;;;;;;5049688;28;20045;-67
2023/04/15 18:47:46;;;;;;;249.32;242.40;;;;;;;;;;5051502;28;20067;-66
2023/04/15 18:50:12;;;;;;;0.00;0.00;;;;;;;;;;5051726;28;20063;-70
2023/04/15 18:52:38;;;;;;;0.00;0.00;;;;;;;;;;5051779;28;20076;-69
2023/04/15 18:55:04;;;;;;;1999.90;999.90;;;;;;;;;;5049095;28;20154;-65
2023/04/15 18:57:33;;;;;;;0.00;0.00;;;;;;;;;;5050121;28;20031;-66
2023/04/15 18:59:59;;;;;;;0.00;0.00;;;;;;;;;;5043800;28;20051;-71
2023/04/15 19:02:25;;;;;;;1999.90;999.90;;;;;;;;;;5031782;28;20402;-65
2023/04/15 19:04:51;;;;;;;1999.90;999.90;;;;;;;;;;5031047;28;20083;-66
2023/04/15 19:07:17;;;;;;;1999.90;999.90;;;;;;;;;;5034705;28;20023;-65
2023/04/15 19:09:44;;;;;;;0.00;0.00;;;;;;;;;;5050954;28;20029;-64
2023/04/15 19:12:10;;;;;;;0.00;0.00;;;;;;;;;;5051421;28;20033;-64
2023/04/15 19:14:36;;;;;;;0.00;0.00;;;;;;;;;;5050948;28;20029;-64
2023/04/15 19:17:02;;;;;;;1999.90;999.90;;;;;;;;;;5051015;28;20087;-64
2023/04/15 19:19:28;;;;;;;1999.90;999.90;;;;;;;;;;5050932;28;20480;-68
2023/04/15 19:21:54;;;;;;;1777.05;999.90;;;;;;;;;;5050627;28;20511;-66
2023/04/15 19:24:21;;;;;;;0.00;0.00;;;;;;;;;;5050945;28;20029;-66
2023/04/15 19:26:48;;;;;;;0.00;0.00;;;;;;;;;;5050959;28;20037;-73
2023/04/15 19:29:14;;;;;;;0.00;0.00;;;;;;;;;;5047996;28;20070;-65
2023/04/15 19:31:41;;;;;;;0.00;0.00;;;;;;;;;;5051008;28;20025;-67
2023/04/15 19:34:07;;;;;;;0.00;0.00;;;;;;;;;;5050638;28;20029;-67
2023/04/15 19:36:33;;;;;;;1999.90;999.90;;;;;;;;;;5050365;28;20477;-66
2023/04/15 19:39:00;;;;;;;1999.90;999.90;;;;;;;;;;5051069;28;20049;-73
2023/04/15 19:41:26;;;;;;;1999.90;999.90;;;;;;;;;;5050462;28;20029;-73
2023/04/15 19:43:52;;;;;;;539.33;525.33;;;;;;;;;;5050642;28;20055;-71
2023/04/15 19:46:18;;;;;;;1950.55;999.90;;;;;;;;;;5050928;28;20059;-73
2023/04/15 19:48:45;;;;;;;1103.78;999.90;;;;;;;;;;5050126;28;20469;-69
2023/04/15 19:51:11;;;;;;;1999.90;999.90;;;;;;;;;;5044956;28;20052;-65
2023/04/15 19:53:37;;;;;;;1437.13;999.90;;;;;;;;;;5037041;28;20033;-65
2023/04/15 19:56:03;;;;;;;1999.90;999.90;;;;;;;;;;5038920;28;20174;-63
2023/04/15 19:58:31;;;;;;;1999.90;999.90;;;;;;;;;;5038017;28;20287;-66
2023/04/15 20:00:57;;;;;;;1999.90;999.90;;;;;;;;;;5039238;28;20139;-66
2023/04/15 20:03:23;;;;;;;1999.90;999.90;;;;;;;;;;5039155;28;20075;-66
2023/04/15 20:05:49;;;;;;;1999.90;999.90;;;;;;;;;;5038732;28;20414;-67
2023/04/15 20:08:15;;;;;;;1999.90;999.90;;;;;;;;;;5039994;28;20100;-72
2023/04/15 20:10:41;;;;;;;1999.90;999.90;;;;;;;;;;5041006;28;20385;-64
2023/04/15 20:13:07;;;;;;;1999.90;999.90;;;;;;;;;;5039971;28;20418;-70
2023/04/15 20:15:33;;;;;;;1999.90;999.90;;;;;;;;;;5036824;28;20504;-71
2023/04/15 20:17:59;;;;;;;1999.90;999.90;;;;;;;;;;5030870;28;20549;-66
2023/04/15 20:20:26;;;;;;;1999.90;999.90;;;;;;;;;;5031012;28;20392;-64
2023/04/15 20:22:52;;;;;;;1999.90;999.90;;;;;;;;;;5030723;28;20463;-65
2023/04/15 20:25:18;;;;;;;1999.90;999.90;;;;;;;;;;5030981;28;20492;-67
2023/04/15 20:27:44;;;;;;;1999.90;999.90;;;;;;;;;;5033686;28;20104;-65
2023/04/15 20:30:10;;;;;;;1999.90;999.90;;;;;;;;;;5035213;28;20108;-66
2023/04/15 20:32:37;;;;;;;1999.90;999.90;;;;;;;;;;5041717;28;20030;-65
2023/04/15 20:35:03;;;;;;;1999.90;999.90;;;;;;;;;;5046314;28;20029;-67
2023/04/15 20:37:31;;;;;;;1999.90;999.90;;;;;;;;;;5039110;28;20550;-65
2023/04/15 20:39:57;;;;;;;1999.90;999.90;;;;;;;;;;5038652;28;20029;-65
2023/04/15 20:42:24;;;;;;;1999.90;999.90;;;;;;;;;;5040518;28;20036;-70
2023/04/15 20:44:50;;;;;;;1999.90;999.90;;;;;;;;;;5037079;28;20025;-68
2023/04/15 20:47:16;;;;;;;1999.90;999.90;;;;;;;;;;5034321;28;20689;-65
2023/04/15 20:49:42;;;;;;;1999.90;999.90;;;;;;;;;;5038846;28;20021;-65
2023/04/15 20:52:08;;;;;;;1999.90;999.90;;;;;;;;;;5037106;28;20033;-69
2023/04/15 20:54:34;;;;;;;1999.90;999.90;;;;;;;;;;5040245;28;20020;-70
2023/04/15 20:57:00;;;;;;;1999.90;999.90;;;;;;;;;;5038099;28;20041;-66
2023/04/15 20:59:27;;;;;;;1999.90;999.90;;;;;;;;;;5036921;28;20025;-68
2023/04/15 21:01:55;;;;;;;1999.90;999.90;;;;;;;;;;5042783;28;20032;-63
2023/04/15 21:04:23;;;;;;;1999.90;999.90;;;;;;;;;;5041711;28;20025;-71
2023/04/15 21:06:50;;;;;;;1999.90;999.90;;;;;;;;;;5045331;28;20032;-65
2023/04/15 21:09:16;;;;;;;1999.90;999.90;;;;;;;;;;5043892;28;20029;-74
2023/04/15 21:11:45;;;;;;;1999.90;999.90;;;;;;;;;;5051350;28;20475;-68
2023/04/15 21:14:11;;;;;;;1999.90;999.90;;;;;;;;;;5042071;28;20749;-68
2023/04/15 21:16:37;;;;;;;1999.90;999.90;;;;;;;;;;5042448;28;20045;-70
2023/04/15 21:19:03;;;;;;;1999.90;999.90;;;;;;;;;;5041340;28;20397;-65
2023/04/15 21:21:30;;;;;;;1999.90;999.90;;;;;;;;;;5041848;28;20936;-66
2023/04/15 21:23:56;;;;;;;1999.90;999.90;;;;;;;;;;5039065;28;20079;-65
2023/04/15 21:26:22;;;;;;;1999.90;999.90;;;;;;;;;;5041305;28;20051;-65
2023/04/15 21:28:48;;;;;;;1999.90;999.90;;;;;;;;;;5044923;28;20461;-65
2023/04/15 21:31:15;;;;;;;1999.90;999.90;;;;;;;;;;5038063;28;20025;-65
2023/04/15 21:33:41;;;;;;;1999.90;999.90;;;;;;;;;;5041873;28;20036;-65
2023/04/15 21:36:07;;;;;;;1999.90;999.90;;;;;;;;;;5048175;28;20434;-66
2023/04/15 21:38:33;;;;;;;1999.90;999.90;;;;;;;;;;5048897;28;20029;-65
2023/04/15 21:41:00;;;;;;;1999.90;999.90;;;;;;;;;;5046870;28;20029;-65
2023/04/15 21:43:26;;;;;;;1999.90;999.90;;;;;;;;;;5039313;28;20018;-66
2023/04/15 21:45:52;;;;;;;1999.90;999.90;;;;;;;;;;5041115;28;20104;-64
2023/04/15 21:48:20;;;;;;;1999.90;999.90;;;;;;;;;;5032545;28;20025;-65
2023/04/15 21:50:46;;;;;;;1352.53;999.90;;;;;;;;;;5033155;28;20896;-65
2023/04/15 21:53:12;;;;;;;1999.90;999.90;;;;;;;;;;5035267;28;20030;-65
2023/04/15 21:55:38;;;;;;;1999.90;999.90;;;;;;;;;;5043790;28;20068;-70
2023/04/15 21:58:04;;;;;;;1999.90;999.90;;;;;;;;;;5045685;28;20093;-68
2023/04/15 22:00:31;;;;;;;1999.90;999.90;;;;;;;;;;5042283;28;20034;-65
2023/04/15 22:02:57;;;;;;;1999.90;999.90;;;;;;;;;;5040241;28;20097;-66
2023/04/15 22:05:23;;;;;;;1999.90;999.90;;;;;;;;;;5041368;28;20364;-73
2023/04/15 22:07:49;;;;;;;1999.90;999.90;;;;;;;;;;5041912;28;20021;-65
2023/04/15 22:10:15;;;;;;;1999.90;999.90;;;;;;;;;;5040274;28;20499;-71
2023/04/15 22:12:41;;;;;;;1999.90;999.90;;;;;;;;;;5045526;28;20017;-65
2023/04/15 22:15:07;;;;;;;1999.90;999.90;;;;;;;;;;5042296;28;20431;-65
2023/04/15 22:17:33;;;;;;;1999.90;999.90;;;;;;;;;;5043141;28;20032;-66
2023/04/15 22:19:59;;;;;;;1999.90;999.90;;;;;;;;;;5042726;28;20033;-66
2023/04/15 22:22:25;;;;;;;1999.90;999.90;;;;;;;;;;5040760;28;20488;-65
2023/04/15 22:24:51;;;;;;;1999.90;999.90;;;;;;;;;;5041737;28;20033;-65
2023/04/15 22:27:17;;;;;;;1999.90;999.90;;;;;;;;;;5042423;28;20106;-66
